createdAt,value
2018-04-10T00:01:59.150Z,99750.69
2018-04-10T00:04:26.685Z,99753.23
2018-04-10T00:06:54.640Z,99750.53
2018-04-10T00:09:22.204Z,99759.42
2018-04-10T00:11:50.194Z,99764.69
2018-04-10T00:14:17.754Z,99758.69
2018-04-10T00:16:45.290Z,99763.36
2018-04-10T00:19:12.844Z,99766.31
2018-04-10T00:21:40.432Z,99762.93
2018-04-10T00:24:08.036Z,99762.16
2018-04-10T00:26:35.625Z,99764.55
2018-04-10T00:29:03.199Z,99763.22
2018-04-10T00:31:30.714Z,99768.27
2018-04-10T00:33:58.271Z,99767.33
2018-04-10T00:36:25.796Z,99774.66
2018-04-10T00:38:53.322Z,99775.26
2018-04-10T00:41:21.007Z,99773.20
2018-04-10T00:43:48.565Z,99776.42
2018-04-10T00:46:16.086Z,99777.67
2018-04-10T00:48:43.654Z,99769.30
2018-04-10T00:51:11.265Z,99772.55
2018-04-10T00:53:38.842Z,99769.42
2018-04-10T00:56:06.385Z,99777.62
2018-04-10T00:58:33.947Z,99777.19
2018-04-10T01:01:01.465Z,99785.42
2018-04-10T01:03:29.055Z,99791.64
2018-04-10T01:05:56.581Z,99786.42
2018-04-10T01:08:24.183Z,99780.25
2018-04-10T01:10:51.709Z,99785.42
2018-04-10T01:13:19.317Z,99790.75
2018-04-10T01:15:46.839Z,99779.95
2018-04-10T01:18:14.409Z,99783.77
2018-04-10T01:20:41.983Z,99782.17
2018-04-10T01:23:09.581Z,99778.19
2018-04-10T01:25:37.132Z,99774.93
2018-04-10T01:28:04.682Z,99788.70
2018-04-10T01:30:32.216Z,99787.02
2018-04-10T01:32:59.776Z,99779.13
2018-04-10T01:35:27.319Z,99779.00
2018-04-10T01:37:54.893Z,99771.02
2018-04-10T01:40:22.416Z,99779.33
2018-04-10T01:42:50.001Z,99783.66
2018-04-10T01:45:17.535Z,99781.25
2018-04-10T01:47:45.098Z,99783.55
2018-04-10T01:50:12.639Z,99773.73
2018-04-10T01:52:40.248Z,99774.38
2018-04-10T01:55:07.818Z,99780.58
2018-04-10T01:57:35.388Z,99773.45
2018-04-10T02:00:02.925Z,99781.59
2018-04-10T02:02:30.510Z,99784.03
2018-04-10T02:04:58.053Z,99786.08
2018-04-10T02:07:25.636Z,99778.58
2018-04-10T02:18:43.054Z,99781.81
2018-04-10T02:21:35.223Z,99782.18
2018-04-10T02:24:03.154Z,99775.28
2018-04-10T02:26:30.717Z,99777.46
2018-04-10T02:28:58.524Z,99770.82
2018-04-10T02:31:26.053Z,99773.48
2018-04-10T02:33:53.600Z,99775.41
2018-04-10T02:36:21.251Z,99780.23
2018-04-10T02:38:48.801Z,99783.09
2018-04-10T02:41:16.385Z,99789.64
2018-04-10T02:43:43.929Z,99788.75
2018-04-10T02:46:11.551Z,99788.09
2018-04-10T02:48:39.075Z,99788.45
2018-04-10T02:51:06.665Z,99787.22
2018-04-10T02:53:34.219Z,99788.80
2018-04-10T02:56:01.778Z,99784.35
2018-04-10T02:58:29.338Z,99789.50
2018-04-10T03:00:56.897Z,99786.70
2018-04-10T03:03:24.403Z,99781.91
2018-04-10T03:05:51.983Z,99779.68
2018-04-10T03:08:19.532Z,99777.45
2018-04-10T03:10:47.824Z,99779.80
2018-04-10T03:13:15.409Z,99785.46
2018-04-10T03:16:02.689Z,99781.25
2018-04-10T03:18:30.242Z,99781.77
2018-04-10T03:20:57.895Z,99791.48
2018-04-10T03:23:25.406Z,99786.61
2018-04-10T03:25:53.538Z,99787.50
2018-04-10T03:28:21.070Z,99791.69
2018-04-10T03:30:49.166Z,99783.53
2018-04-10T03:33:16.776Z,99787.17
2018-04-10T03:35:44.674Z,99790.34
2018-04-10T03:38:12.315Z,99786.59
2018-04-10T03:40:39.873Z,99791.48
2018-04-10T03:43:07.454Z,99793.31
2018-04-10T03:45:35.012Z,99799.09
2018-04-10T03:48:02.612Z,99799.33
2018-04-10T03:50:30.154Z,99808.20
2018-04-10T03:52:57.721Z,99802.16
2018-04-10T03:57:59.606Z,99812.47
2018-04-10T04:00:27.160Z,99813.02
2018-04-10T04:02:54.959Z,99812.66
2018-04-10T04:05:22.498Z,99821.02
2018-04-10T04:07:50.091Z,99819.70
2018-04-10T04:10:17.661Z,99820.58
2018-04-10T04:12:45.198Z,99809.53
2018-04-10T04:15:12.773Z,99812.59
2018-04-10T04:17:41.108Z,99802.45
2018-04-10T04:20:20.857Z,99806.03
2018-04-10T04:22:48.926Z,99800.84
2018-04-10T04:25:16.488Z,99800.03
2018-04-10T04:27:44.684Z,99800.89
2018-04-10T04:30:12.230Z,99804.48
2018-04-10T04:32:40.172Z,99806.00
2018-04-10T04:35:07.742Z,99803.35
2018-04-10T04:37:35.563Z,99807.26
2018-04-10T04:40:03.137Z,99809.13
2018-04-10T04:42:30.672Z,99810.57
2018-04-10T04:44:58.248Z,99805.15
2018-04-10T04:47:25.784Z,99805.63
2018-04-10T04:49:53.359Z,99807.50
2018-04-10T04:52:20.907Z,99812.33
2018-04-10T04:54:48.485Z,99812.83
2018-04-10T04:57:16.042Z,99817.05
2018-04-10T04:59:43.635Z,99805.14
2018-04-10T05:02:11.167Z,99810.30
2018-04-10T05:04:38.776Z,99816.88
2018-04-10T05:07:06.310Z,99820.24
2018-04-10T05:09:33.893Z,99817.00
2018-04-10T05:12:01.429Z,99823.28
2018-04-10T05:14:28.984Z,99823.28
2018-04-10T05:16:56.516Z,99826.95
2018-04-10T05:19:24.093Z,99835.93
2018-04-10T05:21:51.647Z,99838.54
2018-04-10T05:24:19.209Z,99846.27
2018-04-10T05:26:46.749Z,99838.11
2018-04-10T05:29:14.434Z,99848.09
2018-04-10T05:31:41.969Z,99838.61
2018-04-10T05:34:09.541Z,99848.99
2018-04-10T05:36:37.083Z,99846.88
2018-04-10T05:39:05.722Z,99855.02
2018-04-10T05:41:33.283Z,99851.11
2018-04-10T05:44:01.439Z,99848.25
2018-04-10T05:46:29.016Z,99854.73
2018-04-10T05:48:57.266Z,99855.20
2018-04-10T05:51:24.804Z,99859.13
2018-04-10T05:53:52.574Z,99866.81
2018-04-10T05:56:20.831Z,99871.93
2018-04-10T05:58:48.495Z,99870.56
2018-04-10T06:01:27.601Z,99871.08
2018-04-10T06:03:57.639Z,99876.22
2018-04-10T06:06:30.051Z,99875.61
2018-04-10T06:09:02.492Z,99874.36
2018-04-10T06:11:33.103Z,99871.14
2018-04-10T06:14:05.509Z,99873.74
2018-04-10T06:16:37.473Z,99890.36
2018-04-10T06:19:17.533Z,99893.75
2018-04-10T06:21:47.609Z,99896.41
2018-04-10T06:24:20.405Z,99902.08
2018-04-10T06:26:53.711Z,99905.14
2018-04-10T06:29:27.304Z,99905.16
2018-04-10T06:31:58.801Z,99909.31
2018-04-10T06:34:33.129Z,99905.08
2018-04-10T06:37:08.391Z,99912.28
2018-04-10T06:39:42.340Z,99909.14
2018-04-10T06:42:20.069Z,99907.14
2018-04-10T06:44:54.868Z,99910.67
2018-04-10T06:47:29.546Z,99918.56
2018-04-10T06:50:06.575Z,99913.49
2018-04-10T06:52:40.240Z,99912.70
2018-04-10T06:55:11.534Z,99920.66
2018-04-10T06:57:39.094Z,99918.53
2018-04-10T07:00:06.943Z,99920.95
2018-04-10T07:02:34.502Z,99928.25
2018-04-10T07:05:02.309Z,99932.20
2018-04-10T07:07:29.867Z,99925.77
2018-04-10T07:09:57.416Z,99919.81
2018-04-10T07:12:24.995Z,99921.88
2018-04-10T07:14:52.541Z,99928.42
2018-04-10T07:17:20.067Z,99933.66
2018-04-10T07:19:47.579Z,99943.88
2018-04-10T07:22:15.117Z,99938.86
2018-04-10T07:24:42.632Z,99940.92
2018-04-10T07:27:10.177Z,99950.80
2018-04-10T07:29:38.741Z,99952.47
2018-04-10T07:32:06.772Z,99959.59
2018-04-10T07:34:34.292Z,99950.58
2018-04-10T07:37:02.099Z,99955.66
2018-04-10T07:39:30.440Z,99963.59
2018-04-10T07:41:58.755Z,99962.66
2018-04-10T07:44:26.533Z,99957.38
2018-04-10T07:46:54.082Z,99959.57
2018-04-10T07:49:21.637Z,99967.42
2018-04-10T07:51:49.175Z,99967.20
2018-04-10T07:54:16.878Z,99972.80
2018-04-10T07:56:44.486Z,99981.53
2018-04-10T07:59:12.532Z,99981.31
2018-04-10T08:01:40.110Z,99988.61
2018-04-10T08:04:08.921Z,99991.80
2018-04-10T08:06:37.636Z,99991.16
2018-04-10T08:09:05.232Z,99996.78
2018-04-10T08:11:33.033Z,100000.52
2018-04-10T08:14:00.560Z,99991.07
2018-04-10T08:16:28.430Z,99993.00
2018-04-10T08:18:55.994Z,99990.11
2018-04-10T08:21:23.547Z,99981.09
2018-04-10T08:23:51.097Z,99989.93
2018-04-10T08:26:18.618Z,99987.41
2018-04-10T08:28:46.164Z,99996.83
2018-04-10T08:31:13.841Z,100000.37
2018-04-10T08:33:41.435Z,100004.10
2018-04-10T08:36:09.009Z,100002.81
2018-04-10T08:38:36.552Z,100009.19
2018-04-10T08:41:04.077Z,100008.61
2018-04-10T08:43:31.637Z,100011.64
2018-04-10T08:45:59.182Z,100010.36
2018-04-10T08:48:26.733Z,100013.31
2018-04-10T08:50:54.253Z,100015.88
2018-04-10T08:53:21.828Z,100014.86
2018-04-10T08:55:49.360Z,100007.59
2018-04-10T08:58:16.918Z,100008.37
2018-04-10T09:00:44.478Z,100004.52
2018-04-10T09:03:12.030Z,99998.91
2018-04-10T09:05:39.605Z,100002.83
2018-04-10T09:08:07.176Z,100004.34
2018-04-10T09:10:34.708Z,100003.20
2018-04-10T09:13:02.267Z,99996.86
2018-04-10T09:15:29.812Z,100005.40
2018-04-10T09:17:57.379Z,100005.54
2018-04-10T09:20:24.927Z,100007.22
2018-04-10T09:22:52.456Z,100001.87
2018-04-10T09:25:19.986Z,100006.08
2018-04-10T09:27:47.556Z,100007.98
2018-04-10T09:30:15.075Z,100003.69
2018-04-10T09:32:42.618Z,100007.45
2018-04-10T09:35:10.153Z,100004.12
2018-04-10T09:37:37.703Z,100006.51
2018-04-10T09:40:05.238Z,100008.36
2018-04-10T09:42:32.798Z,100011.80
2018-04-10T09:45:00.351Z,100014.19
2018-04-10T09:47:27.916Z,100012.75
2018-04-10T09:49:55.418Z,100021.25
2018-04-10T09:52:22.967Z,100016.91
2018-04-10T09:54:50.527Z,100013.03
2018-04-10T09:57:18.096Z,100014.27
2018-04-10T09:59:45.607Z,100019.83
2018-04-10T10:02:13.199Z,100021.05
2018-04-10T10:04:40.725Z,100022.52
2018-04-10T10:07:08.277Z,100025.95
2018-04-10T10:09:35.812Z,100018.69
2018-04-10T10:12:03.359Z,100016.58
2018-04-10T10:14:31.479Z,100017.36
2018-04-10T10:16:59.591Z,100020.59
2018-04-10T10:19:27.098Z,100024.36
2018-04-10T10:21:54.633Z,100016.19
2018-04-10T10:24:22.176Z,100020.14
2018-04-10T10:26:49.756Z,100015.38
2018-04-10T10:29:17.283Z,100014.60
2018-04-10T10:31:44.809Z,100008.91
2018-04-10T10:34:12.350Z,100015.02
2018-04-10T10:36:39.923Z,100020.06
2018-04-10T10:39:07.681Z,100018.56
2018-04-10T10:41:35.582Z,100022.31
2018-04-10T10:44:03.145Z,100021.75
2018-04-10T10:46:31.082Z,100025.88
2018-04-10T10:48:58.639Z,100016.34
2018-04-10T10:51:26.616Z,100012.97
2018-04-10T10:53:54.162Z,100019.71
2018-04-10T10:56:21.676Z,100010.91
2018-04-10T10:58:49.207Z,100014.17
2018-04-10T11:01:16.734Z,100005.63
2018-04-10T11:03:44.367Z,100010.81
2018-04-10T11:06:11.875Z,100008.27
2018-04-10T11:08:39.446Z,100006.43
2018-04-10T11:11:07.136Z,100015.59
2018-04-10T11:13:34.672Z,100004.91
2018-04-10T11:16:02.224Z,100007.40
2018-04-10T11:18:29.788Z,100007.80
2018-04-10T11:20:57.323Z,100006.52
2018-04-10T11:23:24.948Z,100005.72
2018-04-10T11:25:52.515Z,100009.09
2018-04-10T11:28:20.181Z,100004.22
2018-04-10T11:30:47.709Z,100009.48
2018-04-10T11:33:15.259Z,100007.73
2018-04-10T11:35:42.836Z,100007.93
2018-04-10T11:38:10.373Z,100011.70
2018-04-10T11:40:37.910Z,100014.63
2018-04-10T11:43:05.472Z,100004.04
2018-04-10T11:45:33.050Z,99996.42
2018-04-10T11:48:00.625Z,100001.95
2018-04-10T11:50:28.144Z,99997.16
2018-04-10T11:52:55.682Z,99985.55
2018-04-10T11:55:23.193Z,99986.84
2018-04-10T11:57:50.747Z,99984.05
2018-04-10T12:00:18.255Z,99982.75
2018-04-10T12:02:45.805Z,99991.27
2018-04-10T12:05:13.435Z,99987.31
2018-04-10T12:07:41.602Z,99984.59
2018-04-10T12:10:09.137Z,99976.34
2018-04-10T12:12:36.764Z,99971.94
2018-04-10T12:15:04.319Z,99974.66
2018-04-10T12:17:31.853Z,99972.75
2018-04-10T12:19:59.403Z,99975.95
2018-04-10T12:22:26.930Z,99975.12
2018-04-10T12:24:54.459Z,99968.64
2018-04-10T12:27:21.995Z,99971.27
2018-04-10T12:29:49.680Z,99963.11
2018-04-10T12:32:17.581Z,99956.91
2018-04-10T12:34:45.112Z,99958.91
2018-04-10T12:37:13.076Z,99955.61
2018-04-10T12:39:40.619Z,99949.18
2018-04-10T12:42:08.580Z,99947.98
2018-04-10T12:44:36.122Z,99953.31
2018-04-10T12:47:03.649Z,99950.82
2018-04-10T12:49:31.204Z,99947.84
2018-04-10T12:51:58.729Z,99949.30
2018-04-10T12:54:26.286Z,99946.02
2018-04-10T12:56:56.782Z,99946.80
2018-04-10T12:59:24.303Z,99940.95
2018-04-10T13:01:51.836Z,99938.74
2018-04-10T13:04:19.393Z,99944.14
2018-04-10T13:06:46.934Z,99939.34
2018-04-10T13:09:14.461Z,99942.86
2018-04-10T13:11:41.989Z,99947.09
2018-04-10T13:14:09.519Z,99940.12
2018-04-10T13:16:37.049Z,99942.33
2018-04-10T13:19:04.576Z,99934.75
2018-04-10T13:21:32.106Z,99932.55
2018-04-10T13:23:59.651Z,99926.38
2018-04-10T13:26:27.204Z,99927.47
2018-04-10T13:28:54.763Z,99928.15
2018-04-10T13:31:22.324Z,99928.95
2018-04-10T13:33:49.900Z,99925.09
2018-04-10T13:36:17.442Z,99923.67
2018-04-10T13:38:44.972Z,99921.23
2018-04-10T13:41:12.517Z,99918.44
2018-04-10T13:43:40.062Z,99918.90
2018-04-10T13:46:07.614Z,99914.38
2018-04-10T13:48:35.157Z,99913.09
2018-04-10T13:51:02.694Z,99913.34
2018-04-10T13:53:30.220Z,99906.06
2018-04-10T13:55:57.757Z,99899.45
2018-04-10T13:58:25.285Z,99900.78
2018-04-10T14:00:52.861Z,99900.68
2018-04-10T14:03:20.404Z,99894.52
2018-04-10T14:05:47.943Z,99890.91
2018-04-10T14:08:15.459Z,99887.09
2018-04-10T14:10:43.006Z,99881.16
2018-04-10T14:13:10.539Z,99884.52
2018-04-10T14:15:38.084Z,99884.27
2018-04-10T14:18:06.451Z,99878.35
2018-04-10T14:20:34.305Z,99880.92
2018-04-10T14:23:01.845Z,99880.66
2018-04-10T14:25:29.376Z,99881.07
2018-04-10T14:27:56.988Z,99884.52
2018-04-10T14:30:24.542Z,99870.08
2018-04-10T14:32:52.081Z,99872.58
2018-04-10T14:35:19.605Z,99865.13
2018-04-10T14:37:47.119Z,99869.07
2018-04-10T14:40:14.766Z,99867.29
2018-04-10T14:42:42.310Z,99856.86
2018-04-10T14:45:09.851Z,99858.78
2018-04-10T14:47:37.377Z,99855.23
2018-04-10T14:50:04.912Z,99860.45
2018-04-10T14:52:32.445Z,99853.32
2018-04-10T14:54:59.975Z,99850.36
2018-04-10T14:57:27.490Z,99840.81
2018-04-10T14:59:55.132Z,99837.84
2018-04-10T15:02:22.673Z,99847.20
2018-04-10T15:04:50.208Z,99846.34
2018-04-10T15:07:17.727Z,99844.25
2018-04-10T15:09:45.807Z,99845.03
2018-04-10T15:12:13.386Z,99842.08
2018-04-10T15:14:41.406Z,99839.16
2018-04-10T15:17:08.944Z,99838.74
2018-04-10T15:19:36.963Z,99845.12
2018-04-10T15:22:04.489Z,99840.42
2018-04-10T15:24:32.464Z,99842.42
2018-04-10T15:27:00.021Z,99845.52
2018-04-10T15:29:27.542Z,99840.83
2018-04-10T15:31:55.104Z,99839.39
2018-04-10T15:34:22.639Z,99834.03
2018-04-10T15:36:50.177Z,99840.22
2018-04-10T15:39:17.739Z,99838.63
2018-04-10T15:41:45.300Z,99833.44
2018-04-10T15:44:12.828Z,99830.59
2018-04-10T15:46:40.419Z,99837.06
2018-04-10T15:49:07.946Z,99835.03
2018-04-10T15:51:35.471Z,99838.86
2018-04-10T15:54:02.988Z,99834.47
2018-04-10T15:56:30.512Z,99830.70
2018-04-10T15:58:58.072Z,99828.09
2018-04-10T16:01:25.616Z,99823.25
2018-04-10T16:03:53.173Z,99819.81
2018-04-10T16:06:20.769Z,99820.89
2018-04-10T16:08:48.290Z,99820.56
2018-04-10T16:11:16.591Z,99821.64
2018-04-10T16:13:44.110Z,99828.86
2018-04-10T16:16:12.077Z,99831.70
2018-04-10T16:18:39.622Z,99831.47
2018-04-10T16:21:08.305Z,99820.14
2018-04-10T16:23:35.858Z,99814.73
2018-04-10T16:26:03.407Z,99816.73
2018-04-10T16:28:30.956Z,99814.58
2018-04-10T16:30:58.510Z,99806.10
2018-04-10T16:33:26.059Z,99810.48
2018-04-10T16:35:53.652Z,99812.38
2018-04-10T16:38:21.200Z,99815.00
2018-04-10T16:40:48.735Z,99810.50
2018-04-10T16:43:16.349Z,99816.27
2018-04-10T16:45:43.888Z,99808.03
2018-04-10T16:48:11.422Z,99806.53
2018-04-10T16:50:38.990Z,99823.08
2018-04-10T16:53:06.515Z,99816.52
2018-04-10T16:55:34.179Z,99813.15
2018-04-10T16:58:01.732Z,99808.20
2018-04-10T17:00:29.391Z,99808.42
2018-04-10T17:02:56.942Z,99804.14
2018-04-10T17:05:24.483Z,99802.76
2018-04-10T17:07:52.062Z,99811.75
2018-04-10T17:10:19.597Z,99814.34
2018-04-10T17:12:47.141Z,99815.60
2018-04-10T17:15:14.659Z,99812.27
2018-04-10T17:17:42.223Z,99818.18
2018-04-10T17:20:09.758Z,99822.81
2018-04-10T17:22:37.311Z,99822.62
2018-04-10T17:25:04.846Z,99827.44
2018-04-10T17:27:32.523Z,99830.22
2018-04-10T17:30:00.059Z,99842.38
2018-04-10T17:32:27.636Z,99854.95
2018-04-10T17:34:55.172Z,99854.84
2018-04-10T17:37:22.735Z,99854.34
2018-04-10T17:39:50.256Z,99853.97
2018-04-10T17:42:17.844Z,99861.38
2018-04-10T17:44:45.399Z,99862.74
2018-04-10T17:47:12.976Z,99861.16
2018-04-10T17:49:40.493Z,99855.26
2018-04-10T17:52:08.095Z,99855.55
2018-04-10T17:54:35.610Z,99855.65
2018-04-10T17:57:03.158Z,99860.09
2018-04-10T17:59:30.671Z,99867.97
2018-04-10T18:01:58.249Z,99871.63
2018-04-10T18:04:25.795Z,99878.98
2018-04-10T18:06:53.353Z,99890.41
2018-04-10T18:09:20.875Z,99897.97
2018-04-10T18:11:48.465Z,99894.06
2018-04-10T18:14:16.038Z,99894.70
2018-04-10T18:16:43.626Z,99885.86
2018-04-10T18:19:11.165Z,99875.52
2018-04-10T18:21:38.711Z,99869.41
2018-04-10T18:24:06.257Z,99869.32
2018-04-10T18:26:33.819Z,99877.24
2018-04-10T18:29:01.348Z,99892.57
2018-04-10T18:31:28.906Z,99892.19
2018-04-10T18:33:59.429Z,99908.22
2018-04-10T18:36:27.638Z,99925.62
2018-04-10T18:38:55.269Z,99933.83
2018-04-10T18:41:22.806Z,99931.00
2018-04-10T18:43:50.374Z,99935.19
2018-04-10T18:46:17.916Z,99925.73
2018-04-10T18:48:45.622Z,99915.43
2018-04-10T18:51:13.180Z,99904.84
2018-04-10T18:53:40.797Z,99906.97
2018-04-10T18:56:08.329Z,99907.50
2018-04-10T18:58:36.588Z,99914.02
2018-04-10T19:01:04.117Z,99926.71
2018-04-10T19:03:32.305Z,99935.95
2018-04-10T19:05:59.840Z,99954.17
2018-04-10T19:08:27.776Z,99973.55
2018-04-10T19:10:55.336Z,99986.25
2018-04-10T19:13:23.345Z,99997.07
2018-04-10T19:15:50.900Z,100004.06
2018-04-10T19:18:18.451Z,100010.75
2018-04-10T19:20:46.072Z,100007.89
2018-04-10T19:23:13.601Z,100005.85
2018-04-10T19:25:42.044Z,100010.63
2018-04-10T19:28:09.621Z,100011.76
2018-04-10T19:30:37.782Z,100018.95
2018-04-10T19:33:05.320Z,100016.52
2018-04-10T19:35:33.242Z,99999.33
2018-04-10T19:38:00.775Z,99974.02
2018-04-10T19:40:29.114Z,99985.27
2018-04-10T19:42:56.955Z,100008.00
2018-04-10T19:45:24.487Z,100027.34
2018-04-10T19:47:52.046Z,100065.45
2018-04-10T19:50:19.599Z,100103.52
2018-04-10T19:52:47.208Z,100117.19
2018-04-10T19:55:14.751Z,100117.02
2018-04-10T19:57:43.131Z,100121.89
2018-04-10T20:00:10.651Z,100132.56
2018-04-10T20:02:38.809Z,100137.27
2018-04-10T20:05:06.359Z,100133.58
2018-04-10T20:07:34.610Z,100125.94
2018-04-10T20:10:02.201Z,100115.53
2018-04-10T20:12:30.161Z,100103.75
2018-04-10T20:14:58.443Z,100100.67
2018-04-10T20:17:26.118Z,100072.48
2018-04-10T20:19:54.110Z,100056.16
2018-04-10T20:22:21.680Z,100039.61
2018-04-10T20:24:49.943Z,100002.72
2018-04-10T20:27:17.532Z,99987.30
2018-04-10T20:29:45.124Z,99970.02
2018-04-10T20:32:12.740Z,99955.34
2018-04-10T20:34:40.331Z,99945.25
2018-04-10T20:37:08.652Z,99961.30
2018-04-10T20:39:36.648Z,99966.02
2018-04-10T20:42:04.851Z,99973.54
2018-04-10T20:44:33.965Z,99986.97
2018-04-10T20:47:01.502Z,100019.05
2018-04-10T20:49:29.473Z,100031.81
2018-04-10T20:51:57.060Z,100054.09
2018-04-10T20:54:25.025Z,100056.41
2018-04-10T20:56:52.584Z,100052.14
2018-04-10T20:59:20.443Z,100056.61
2018-04-10T21:01:48.010Z,100062.27
2018-04-10T21:04:16.106Z,100062.81
2018-04-10T21:06:43.683Z,100074.27
2018-04-10T21:09:11.212Z,100085.27
2018-04-10T21:11:38.793Z,100089.21
2018-04-10T21:14:06.342Z,100084.98
2018-04-10T21:16:33.949Z,100070.09
2018-04-10T21:19:01.517Z,100057.31
2018-04-10T21:21:29.110Z,100056.34
2018-04-10T21:23:56.667Z,100059.38
2018-04-10T21:26:24.312Z,100079.29
2018-04-10T21:28:51.848Z,100089.35
2018-04-10T21:31:19.474Z,100090.79
2018-04-10T21:33:46.993Z,100095.16
2018-04-10T21:36:14.573Z,100089.21
2018-04-10T21:38:42.140Z,100088.13
2018-04-10T21:41:09.752Z,100089.62
2018-04-10T21:43:37.284Z,100086.32
2018-04-10T21:46:05.605Z,100069.36
2018-04-10T21:48:33.145Z,100064.91
2018-04-10T21:51:01.339Z,100044.72
2018-04-10T21:53:28.889Z,100022.27
2018-04-10T21:55:56.850Z,100027.00
2018-04-10T21:58:24.575Z,100011.67
2018-04-10T22:00:52.223Z,100030.64
2018-04-10T22:03:19.808Z,100048.83
2018-04-10T22:05:47.380Z,100051.06
2018-04-10T22:08:15.200Z,100053.69
2018-04-10T22:10:42.758Z,100060.19
2018-04-10T22:13:11.163Z,100061.05
2018-04-10T22:15:38.741Z,100054.02
2018-04-10T22:18:26.937Z,100053.19
2018-04-10T22:20:54.621Z,100070.52
2018-04-10T22:23:22.699Z,100077.90
2018-04-10T22:25:50.337Z,100091.73
2018-04-10T22:28:18.016Z,100108.70
2018-04-10T22:30:45.604Z,100116.64
2018-04-10T22:33:13.092Z,100122.36
2018-04-10T22:35:40.733Z,100122.63
2018-04-10T22:38:08.311Z,100131.36
2018-04-10T22:40:35.895Z,100132.25
2018-04-10T22:43:03.445Z,100132.67
2018-04-10T22:45:31.129Z,100123.51
2018-04-10T22:47:58.696Z,100128.11
2018-04-10T22:50:27.047Z,100126.88
2018-04-10T22:52:54.625Z,100127.22
2018-04-10T22:55:22.628Z,100127.31
2018-04-10T22:57:50.184Z,100120.80
2018-04-10T23:00:18.164Z,100119.14
2018-04-10T23:02:45.722Z,100114.95
2018-04-10T23:05:13.578Z,100110.05
2018-04-10T23:07:41.166Z,100119.11
2018-04-10T23:10:08.708Z,100117.12
2018-04-10T23:12:36.299Z,100115.70
2018-04-10T23:15:03.867Z,100117.56
2018-04-10T23:17:31.445Z,100122.79
2018-04-10T23:19:59.036Z,100128.14
2018-04-10T23:22:26.596Z,100126.30
2018-04-10T23:24:54.146Z,100133.80
2018-04-10T23:27:21.705Z,100132.18
2018-04-10T23:29:49.232Z,100135.98
2018-04-10T23:32:16.776Z,100142.06
2018-04-10T23:34:44.334Z,100143.05
2018-04-10T23:37:11.875Z,100148.58
2018-04-10T23:39:39.417Z,100147.94
2018-04-10T23:42:06.967Z,100144.63
2018-04-10T23:44:34.497Z,100145.81
2018-04-10T23:47:02.060Z,100144.28
2018-04-10T23:49:29.583Z,100142.50
2018-04-10T23:51:57.113Z,100141.95
2018-04-10T23:54:24.679Z,100136.88
2018-04-10T23:56:52.251Z,100143.13
2018-04-10T23:59:19.794Z,100141.73
